Time;durP1;ratioP1;P1;durP2;ratioP2;P2;SDS_P1;SDS_P2;PMS_P1;PMS_P2;Temp;Humidity;BMP_temperature;BMP_pressure;BME280_temperature;BME280_humidity;BME280_pressure;Samples;Min_cycle;Max_cycle;Signal;HPM_P1;HPM_P2
2021/12/16 00:09:41;;;;;;;27.30;15.97;;;;;;;0.30;100.00;100486.88;1560419;92;21123;-70
2021/12/16 00:33:41;;;;;;;26.90;15.23;;;;;;;0.26;100.00;100485.34;1528222;94;21137;-72
2021/12/16 00:36:08;;;;;;;27.23;16.77;;;;;;;0.23;100.00;100480.23;1528273;94;21085;-72
2021/12/16 00:38:37;;;;;;;28.40;16.53;;;;;;;0.23;100.00;100485.55;1528208;94;21072;-71
2021/12/16 00:41:04;;;;;;;28.10;15.50;;;;;;;0.22;100.00;100484.31;1528163;94;21089;-72
2021/12/16 00:43:39;;;;;;;28.73;16.50;;;;;;;0.22;100.00;100488.30;1528291;94;21068;-71
2021/12/16 00:46:15;;;;;;;26.40;15.63;;;;;;;0.21;100.00;100491.41;1528374;94;21069;-73
2021/12/16 00:56:40;;;;;;;28.53;17.10;;;;;;;0.16;100.00;100477.53;1589036;90;21100;-72
2021/12/16 00:59:09;;;;;;;30.07;18.10;;;;;;;0.16;100.00;100477.53;1588869;90;21554;-71
2021/12/16 01:04:46;;;;;;;27.50;16.10;;;;;;;0.15;100.00;100471.86;1588813;90;21571;-70
2021/12/16 01:42:50;;;;;;;109.87;46.37;;;;;;;0.13;100.00;100474.61;1558713;92;21085;-70
2021/12/16 01:50:41;;;;;;;38.07;19.47;;;;;;;0.13;100.00;100492.38;1558557;92;21137;-72
2021/12/16 01:58:30;;;;;;;40.70;21.40;;;;;;;0.16;100.00;100505.01;1533880;94;21081;-72
2021/12/16 02:01:16;;;;;;;35.17;19.13;;;;;;;0.15;100.00;100507.76;1521831;94;21168;-70
2021/12/16 02:03:47;;;;;;;36.63;19.10;;;;;;;0.15;100.00;100507.76;1518444;94;21057;-73
2021/12/16 02:06:39;;;;;;;36.00;19.33;;;;;;;0.11;100.00;100499.59;1554072;91;21068;-73
2021/12/16 02:08:53;;;;;;;34.77;19.03;;;;;;;0.08;100.00;100499.28;1559693;92;21102;-72
2021/12/16 02:31:17;;;;;;;35.90;19.90;;;;;;;0.01;100.00;100484.66;1522836;94;21073;-72
2021/12/16 02:38:38;;;;;;;34.37;18.57;;;;;;;0.03;100.00;100473.45;1527491;94;21071;-70
2021/12/16 02:41:06;;;;;;;36.37;19.80;;;;;;;0.03;100.00;100472.12;1527548;94;21094;-72
2021/12/16 02:48:42;;;;;;;34.13;18.13;;;;;;;0.05;100.00;100476.86;1527195;94;21113;-71
2021/12/16 02:51:17;;;;;;;34.70;17.87;;;;;;;0.05;100.00;100482.18;1524067;94;21113;-72
2021/12/16 02:53:54;;;;;;;36.13;19.57;;;;;;;0.07;100.00;100477.66;1496327;96;21115;-71
2021/12/16 02:56:22;;;;;;;105.13;53.17;;;;;;;0.06;100.00;100465.78;1423924;101;21133;-72
2021/12/16 02:58:54;;;;;;;104.50;50.03;;;;;;;0.04;100.00;100480.48;1423815;100;21185;-72
2021/12/16 03:01:38;;;;;;;92.12;47.35;;;;;;;0.01;100.00;100475.34;1436366;98;21640;-72
2021/12/16 03:04:08;;;;;;;131.57;72.03;;;;;;;0.01;100.00;100474.02;1460677;98;21225;-71
2021/12/16 03:06:37;;;;;;;104.83;53.13;;;;;;;-0.03;100.00;100477.82;1467631;96;21116;-71
2021/12/16 03:09:07;;;;;;;92.10;49.77;;;;;;;-0.11;100.00;100482.25;1458639;97;21575;-72
2021/12/16 03:14:32;;;;;;;111.10;57.50;;;;;;;-0.21;100.00;100485.09;1427167;100;21189;-72
2021/12/16 03:17:11;;;;;;;73.83;38.87;;;;;;;-0.24;100.00;100483.94;1499916;94;21566;-72
2021/12/16 03:19:51;;;;;;;95.83;49.07;;;;;;;-0.27;100.00;100482.30;1515356;94;21157;-72
2021/12/16 03:22:09;;;;;;;83.33;43.57;;;;;;;-0.29;100.00;100486.86;1515161;95;21104;-71
2021/12/16 03:25:06;;;;;;;43.47;21.60;;;;;;;-0.25;100.00;100488.86;1515433;95;21610;-73
2021/12/16 03:35:30;;;;;;;32.97;17.47;;;;;;;-0.18;100.00;100485.38;1515431;95;21160;-71
2021/12/16 03:38:04;;;;;;;36.87;17.83;;;;;;;-0.18;100.00;100480.91;1538158;93;21586;-72
2021/12/16 03:40:32;;;;;;;34.43;17.70;;;;;;;-0.16;100.00;100479.48;1537999;93;21601;-72
2021/12/16 03:43:17;;;;;;;32.47;17.13;;;;;;;-0.14;100.00;100486.89;1538126;93;21125;-71
2021/12/16 03:49:02;;;;;;;35.63;19.43;;;;;;;-0.13;100.00;100488.13;1538358;93;21083;-71
2021/12/16 03:51:51;;;;;;;32.87;17.53;;;;;;;-0.14;100.00;100486.44;1538127;92;21076;-71
2021/12/16 03:54:28;;;;;;;35.30;18.50;;;;;;;-0.15;100.00;100487.38;1506435;92;21192;-71
2021/12/16 03:57:01;;;;;;;43.87;25.07;;;;;;;-0.15;100.00;100488.70;1478914;97;21186;-72
2021/12/16 03:59:30;;;;;;;37.97;21.53;;;;;;;-0.14;100.00;100482.45;1479019;97;21107;-71
2021/12/16 04:02:02;;;;;;;104.13;56.70;;;;;;;-0.14;100.00;100494.41;1478034;97;21722;-71
2021/12/16 04:04:39;;;;;;;129.12;69.80;;;;;;;-0.11;100.00;100497.35;1472365;97;21590;-71
2021/12/16 04:07:08;;;;;;;73.63;46.50;;;;;;;-0.12;100.00;100501.82;1494473;95;21154;-71
2021/12/16 04:09:37;;;;;;;164.37;70.93;;;;;;;-0.11;100.00;100500.01;1509821;95;21060;-71
2021/12/16 04:12:15;;;;;;;169.83;73.37;;;;;;;-0.13;100.00;100494.78;1505692;93;21632;-71
2021/12/16 04:14:41;;;;;;;46.77;27.30;;;;;;;-0.14;100.00;100497.52;1505713;95;21071;-71
2021/12/16 04:17:11;;;;;;;42.63;23.13;;;;;;;-0.15;100.00;100498.49;1487352;95;21150;-71
2021/12/16 04:19:42;;;;;;;34.30;17.70;;;;;;;-0.18;100.00;100499.52;1505791;95;21144;-70
2021/12/16 04:22:17;;;;;;;31.20;17.30;;;;;;;-0.19;100.00;100493.83;1506121;95;21130;-71
2021/12/16 04:24:48;;;;;;;34.93;18.73;;;;;;;-0.19;100.00;100497.81;1505788;95;21115;-71
2021/12/16 04:27:17;;;;;;;31.60;16.90;;;;;;;-0.20;100.00;100491.63;1505529;95;21666;-71
2021/12/16 04:29:44;;;;;;;34.63;18.23;;;;;;;-0.20;100.00;100496.09;1505474;95;21122;-71
2021/12/16 04:32:12;;;;;;;33.10;18.47;;;;;;;-0.18;100.00;100500.84;1505125;95;21122;-72
2021/12/16 04:34:41;;;;;;;32.63;18.20;;;;;;;-0.13;100.00;100495.27;1499611;95;21107;-70
2021/12/16 04:37:09;;;;;;;35.70;19.50;;;;;;;-0.13;100.00;100493.94;1496472;96;21175;-72
2021/12/16 04:39:38;;;;;;;36.67;20.17;;;;;;;-0.12;100.00;100495.66;1496380;96;21107;-70
2021/12/16 04:42:06;;;;;;;39.80;20.47;;;;;;;-0.16;100.00;100494.11;1496897;95;21151;-73
2021/12/16 04:44:34;;;;;;;37.80;21.17;;;;;;;-0.19;100.00;100492.50;1496585;96;21099;-70
2021/12/16 04:47:04;;;;;;;40.03;19.63;;;;;;;-0.19;100.00;100485.86;1496452;95;21079;-71
2021/12/16 04:49:32;;;;;;;38.23;21.07;;;;;;;-0.18;100.00;100491.54;1496652;95;21090;-71
2021/12/16 04:52:04;;;;;;;41.90;23.37;;;;;;;-0.15;100.00;100494.50;1595230;90;21100;-71
2021/12/16 04:54:31;;;;;;;37.27;20.73;;;;;;;-0.17;100.00;100493.27;1656490;86;21061;-73
2021/12/16 04:56:59;;;;;;;38.50;20.73;;;;;;;-0.16;100.00;100494.11;1663943;86;21611;-72
2021/12/16 04:59:28;;;;;;;38.87;21.13;;;;;;;-0.16;100.00;100502.96;1629264;88;21086;-72
2021/12/16 05:01:59;;;;;;;40.50;23.00;;;;;;;-0.16;100.00;100503.41;1606969;89;21022;-71
2021/12/16 05:04:37;;;;;;;37.67;19.80;;;;;;;-0.21;100.00;100493.08;1634314;87;21628;-71
2021/12/16 05:07:05;;;;;;;37.90;21.07;;;;;;;-0.23;100.00;100497.59;1630951;88;21065;-71
2021/12/16 05:12:14;;;;;;;39.13;20.43;;;;;;;-0.26;100.00;100500.45;1617737;88;21128;-72
2021/12/16 05:14:41;;;;;;;88.83;44.97;;;;;;;-0.31;100.00;100498.54;1574570;90;21073;-71
2021/12/16 05:17:22;;;;;;;77.77;40.00;;;;;;;-0.34;100.00;100490.74;1573789;90;21209;-72
2021/12/16 05:19:40;;;;;;;46.13;25.67;;;;;;;-0.38;100.00;100491.39;1542203;91;21093;-71
2021/12/16 05:24:36;;;;;;;41.10;22.50;;;;;;;-0.39;100.00;100491.88;1543572;93;21609;-72
2021/12/16 05:27:11;;;;;;;38.77;21.00;;;;;;;-0.40;100.00;100499.94;1519653;94;21102;-71
2021/12/16 05:29:39;;;;;;;43.83;23.40;;;;;;;-0.46;100.00;100491.86;1519665;94;21101;-71
2021/12/16 05:32:07;;;;;;;43.03;24.57;;;;;;;-0.48;100.00;100499.06;1519683;94;21609;-71
2021/12/16 05:34:36;;;;;;;40.93;25.93;;;;;;;-0.49;100.00;100504.46;1519545;94;21611;-71
2021/12/16 05:37:05;;;;;;;41.93;24.90;;;;;;;-0.51;100.00;100499.23;1519788;94;21133;-70
2021/12/16 05:39:33;;;;;;;40.83;21.57;;;;;;;-0.54;100.00;100494.09;1519818;94;21090;-71
2021/12/16 05:42:18;;;;;;;41.30;22.77;;;;;;;-0.57;100.00;100490.27;1519800;94;21134;-72
2021/12/16 05:44:45;;;;;;;38.63;21.53;;;;;;;-0.58;100.00;100487.25;1519850;94;21144;-71
2021/12/16 05:47:12;;;;;;;42.87;22.30;;;;;;;-0.60;100.00;100493.98;1519875;94;21050;-71
2021/12/16 05:49:45;;;;;;;45.83;24.50;;;;;;;-0.58;100.00;100503.19;1519599;94;21631;-71
2021/12/16 05:52:14;;;;;;;42.07;23.53;;;;;;;-0.62;100.00;100502.52;1519762;94;21143;-71
2021/12/16 05:54:41;;;;;;;227.43;91.43;;;;;;;-0.62;100.00;100500.30;1519816;94;21205;-72
2021/12/16 05:57:13;;;;;;;357.87;137.87;;;;;;;-0.62;100.00;100492.34;1519957;94;21054;-72
2021/12/16 05:59:41;;;;;;;74.40;39.40;;;;;;;-0.61;100.00;100494.06;1519742;94;21560;-71
2021/12/16 06:02:10;;;;;;;49.70;30.40;;;;;;;-0.61;100.00;100494.91;1557570;91;21104;-71
2021/12/16 06:04:38;;;;;;;46.77;27.57;;;;;;;-0.58;100.00;100502.70;1557941;92;21130;-71
2021/12/16 06:07:10;;;;;;;45.57;26.50;;;;;;;-0.54;100.00;100499.88;1560164;90;21129;-72
2021/12/16 06:09:37;;;;;;;63.60;38.40;;;;;;;-0.52;100.00;100500.16;1573536;91;21160;-72
2021/12/16 06:12:05;;;;;;;66.97;37.83;;;;;;;-0.51;100.00;100498.36;1601316;89;21034;-72
2021/12/16 06:28:07;;;;;;;83.87;52.50;;;;;;;-0.58;100.00;100507.17;1659812;86;21045;-70
2021/12/16 06:30:40;;;;;;;64.37;35.17;;;;;;;-0.56;100.00;100507.09;1657873;86;21640;-68
2021/12/16 06:33:10;;;;;;;50.23;27.80;;;;;;;-0.55;100.00;100501.66;1660953;85;21054;-68
2021/12/16 06:35:39;;;;;;;50.07;27.17;;;;;;;-0.55;100.00;100504.31;1669142;85;21053;-69
2021/12/16 06:38:07;;;;;;;59.77;34.03;;;;;;;-0.52;100.00;100497.51;1659115;85;21031;-69
2021/12/16 06:40:36;;;;;;;58.90;34.27;;;;;;;-0.47;100.00;100492.78;1655919;86;21082;-69
2021/12/16 06:43:06;;;;;;;58.83;32.40;;;;;;;-0.39;100.00;100498.97;1651638;87;21046;-69
2021/12/16 06:45:37;;;;;;;56.53;29.43;;;;;;;-0.32;100.00;100488.84;1655188;86;21069;-71
2021/12/16 06:48:11;;;;;;;49.03;27.90;;;;;;;-0.31;100.00;100490.57;1655055;86;21160;-71
2021/12/16 06:53:23;;;;;;;54.23;30.50;;;;;;;-0.30;100.00;100497.58;1664975;85;21002;-71
2021/12/16 07:03:47;;;;;;;52.10;28.73;;;;;;;-0.21;100.00;100509.02;1645076;86;21082;-72
2021/12/16 07:06:20;;;;;;;64.97;37.00;;;;;;;-0.17;100.00;100509.69;1645468;86;21041;-71
2021/12/16 07:08:59;;;;;;;67.47;35.77;;;;;;;-0.14;100.00;100510.36;1616895;88;21042;-69
2021/12/16 07:11:27;;;;;;;61.00;33.70;;;;;;;-0.09;100.00;100513.61;1625516;88;21006;-69
2021/12/16 07:16:27;;;;;;;55.37;32.53;;;;;;;-0.03;100.00;100520.36;1560862;91;21107;-70
2021/12/16 07:18:55;;;;;;;48.50;27.97;;;;;;;-0.05;100.00;100511.63;1560898;92;21496;-70
2021/12/16 07:21:23;;;;;;;48.67;27.00;;;;;;;-0.11;100.00;100506.17;1559962;92;21156;-67
2021/12/16 07:23:51;;;;;;;51.50;28.40;;;;;;;-0.16;100.00;100504.29;1559369;92;21801;-70
2021/12/16 07:26:18;;;;;;;54.20;31.50;;;;;;;-0.20;100.00;100506.24;1559077;92;21107;-70
2021/12/16 07:28:44;;;;;;;49.17;27.37;;;;;;;-0.19;100.00;100509.78;1557488;92;21089;-69
2021/12/16 07:31:11;;;;;;;71.23;38.30;;;;;;;-0.19;100.00;100511.11;1558886;92;21094;-71
2021/12/16 07:33:38;;;;;;;68.97;38.60;;;;;;;-0.19;100.00;100507.13;1558837;92;21121;-69
2021/12/16 07:36:05;;;;;;;55.40;30.67;;;;;;;-0.18;100.00;100511.47;1510927;92;21119;-69
2021/12/16 07:38:32;;;;;;;53.63;30.73;;;;;;;-0.16;100.00;100519.36;1483489;97;21033;-69
2021/12/16 07:40:58;;;;;;;50.47;27.77;;;;;;;-0.16;100.00;100525.55;1491593;95;21105;-70
2021/12/16 07:45:55;;;;;;;102.53;43.23;;;;;;;-0.09;100.00;100525.57;1508165;94;21095;-70
2021/12/16 07:48:25;;;;;;;105.10;45.43;;;;;;;-0.05;100.00;100527.58;1509862;94;21594;-70
2021/12/16 07:50:55;;;;;;;88.43;40.00;;;;;;;-0.03;100.00;100533.17;1476483;95;21550;-69
2021/12/16 07:53:23;;;;;;;75.83;41.80;;;;;;;0.01;100.00;100536.98;1507955;94;21588;-69
2021/12/16 07:55:50;;;;;;;70.40;40.83;;;;;;;-0.02;100.00;100535.34;1510001;94;21087;-70
2021/12/16 07:58:19;;;;;;;67.30;38.60;;;;;;;-0.06;100.00;100539.98;1479871;95;21548;-70
2021/12/16 08:00:46;;;;;;;48.33;27.57;;;;;;;-0.03;100.00;100531.84;1513416;93;21087;-69
2021/12/16 08:03:13;;;;;;;61.20;35.50;;;;;;;0.01;100.00;100533.84;1511740;93;21036;-70
2021/12/16 08:05:46;;;;;;;49.73;28.90;;;;;;;0.04;100.00;100540.31;1508227;93;21077;-70
2021/12/16 08:08:12;;;;;;;60.65;34.98;;;;;;;0.04;100.00;100533.67;1505687;93;21104;-69
2021/12/16 08:10:38;;;;;;;113.40;47.40;;;;;;;0.03;100.00;100535.09;1509304;93;21104;-69
2021/12/16 08:13:06;;;;;;;85.17;53.43;;;;;;;-0.02;100.00;100532.69;1567058;88;21136;-67
2021/12/16 08:15:33;;;;;;;88.60;50.57;;;;;;;-0.07;100.00;100526.33;1609363;88;21039;-71
2021/12/16 08:18:00;;;;;;;77.10;47.33;;;;;;;-0.08;100.00;100521.10;1607165;88;21097;-74
2021/12/16 08:20:27;;;;;;;109.20;67.73;;;;;;;-0.10;100.00;100517.20;1602127;88;21134;-72
2021/12/16 08:22:57;;;;;;;110.03;64.97;;;;;;;-0.09;100.00;100519.38;1612570;87;21002;-73
2021/12/16 08:25:26;;;;;;;71.50;42.70;;;;;;;-0.09;100.00;100530.02;1608465;88;21004;-74
2021/12/16 08:27:54;;;;;;;99.67;51.97;;;;;;;-0.09;100.00;100518.05;1611371;88;21469;-72
2021/12/16 08:30:23;;;;;;;98.23;57.30;;;;;;;-0.07;100.00;100518.80;1603625;88;21025;-71
2021/12/16 08:32:50;;;;;;;74.77;44.47;;;;;;;-0.08;100.00;100512.64;1611995;87;21044;-70
2021/12/16 08:35:17;;;;;;;71.57;43.03;;;;;;;-0.09;100.00;100510.08;1601803;88;21027;-71
2021/12/16 08:37:44;;;;;;;106.07;70.90;;;;;;;-0.09;100.00;100506.09;1614252;88;21019;-70
2021/12/16 08:40:18;;;;;;;84.60;53.63;;;;;;;-0.10;100.00;100497.27;1615518;88;21114;-73
2021/12/16 08:42:45;;;;;;;79.07;53.07;;;;;;;-0.10;100.00;100492.43;1636650;85;21049;-72
2021/12/16 08:45:16;;;;;;;98.37;59.87;;;;;;;-0.13;100.00;100503.23;1674694;84;21052;-73
2021/12/16 08:47:49;;;;;;;70.47;42.00;;;;;;;-0.13;100.00;100508.55;1680283;85;21045;-71
2021/12/16 08:50:18;;;;;;;115.43;72.40;;;;;;;-0.14;100.00;100501.06;1673345;85;21030;-72
2021/12/16 08:52:45;;;;;;;89.33;53.70;;;;;;;-0.17;100.00;100494.59;1669712;85;21037;-71
2021/12/16 08:55:12;;;;;;;87.33;53.63;;;;;;;-0.22;100.00;100496.18;1674187;84;20974;-72
2021/12/16 08:57:41;;;;;;;48.00;28.87;;;;;;;-0.22;100.00;100490.02;1672269;84;21534;-72
2021/12/16 09:00:13;;;;;;;44.73;24.40;;;;;;;-0.20;100.00;100487.64;1675356;84;21057;-72
2021/12/16 09:02:40;;;;;;;61.70;35.33;;;;;;;-0.17;100.00;100495.08;1675283;84;21084;-72
2021/12/16 09:05:09;;;;;;;63.90;36.87;;;;;;;-0.14;100.00;100497.52;1679236;85;21006;-72
2021/12/16 09:07:35;;;;;;;60.53;38.13;;;;;;;-0.12;100.00;100482.37;1680873;84;21032;-70
2021/12/16 09:10:07;;;;;;;58.07;37.33;;;;;;;-0.10;100.00;100489.77;1665487;84;21068;-74
2021/12/16 09:15:04;;;;;;;49.63;32.90;;;;;;;-0.11;100.00;100488.89;1667934;85;21029;-70
2021/12/16 09:17:33;;;;;;;43.40;26.97;;;;;;;-0.13;100.00;100486.80;1686260;84;21041;-71
2021/12/16 09:19:59;;;;;;;57.20;35.03;;;;;;;-0.12;100.00;100485.03;1663748;84;21038;-71
2021/12/16 09:22:26;;;;;;;47.90;32.37;;;;;;;-0.12;100.00;100481.89;1663990;85;21002;-70
2021/12/16 09:24:54;;;;;;;50.23;33.00;;;;;;;-0.13;100.00;100490.80;1646899;86;21143;-71
2021/12/16 09:27:20;;;;;;;43.40;25.60;;;;;;;-0.15;100.00;100484.72;1618170;87;21077;-73
2021/12/16 09:29:48;;;;;;;41.03;26.30;;;;;;;-0.17;100.00;100479.97;1691732;84;21000;-74
2021/12/16 09:32:16;;;;;;;46.30;30.70;;;;;;;-0.17;100.00;100475.98;1682769;84;21472;-73
2021/12/16 09:34:43;;;;;;;45.73;28.67;;;;;;;-0.17;100.00;100469.34;1683502;84;21065;-70
2021/12/16 09:37:11;;;;;;;45.83;29.80;;;;;;;-0.20;100.00;100461.54;1675612;84;21036;-70
2021/12/16 09:39:38;;;;;;;38.47;22.37;;;;;;;-0.18;100.00;100460.13;1680218;85;21379;-71
2021/12/16 09:42:06;;;;;;;47.93;29.10;;;;;;;-0.15;100.00;100461.28;1668397;84;21016;-71
2021/12/16 09:44:32;;;;;;;38.03;23.80;;;;;;;-0.13;100.00;100454.91;1662809;85;21460;-71
2021/12/16 09:47:02;;;;;;;58.40;37.77;;;;;;;-0.10;100.00;100444.09;1665112;85;21095;-74
2021/12/16 09:49:28;;;;;;;52.07;32.87;;;;;;;-0.09;100.00;100449.81;1675882;84;21001;-71
2021/12/16 09:51:58;;;;;;;64.53;37.73;;;;;;;-0.09;100.00;100437.84;1689264;84;21014;-73
2021/12/16 09:54:28;;;;;;;58.20;36.50;;;;;;;-0.08;100.00;100432.89;1686408;85;21539;-69
2021/12/16 09:56:56;;;;;;;53.57;32.53;;;;;;;-0.07;100.00;100433.28;1684258;84;21518;-70
2021/12/16 09:59:25;;;;;;;66.00;40.90;;;;;;;-0.05;100.00;100428.73;1694150;84;21017;-71
2021/12/16 10:01:58;;;;;;;52.00;32.83;;;;;;;-0.02;100.00;100425.89;1686944;83;20990;-71
2021/12/16 10:04:31;;;;;;;;;;;;;;;0.02;100.00;100429.66;1673316;85;21034;-75
2021/12/16 10:06:57;;;;;;;51.20;34.43;;;;;;;0.04;100.00;100424.65;1673518;84;20207;-72
2021/12/16 10:09:23;;;;;;;52.83;35.03;;;;;;;0.01;100.00;100416.85;1660086;84;21081;-72
2021/12/16 10:11:53;;;;;;;49.20;32.43;;;;;;;-0.06;100.00;100408.39;1637828;86;21071;-72
2021/12/16 10:19:39;;;;;;;71.17;42.40;;;;;;;-0.15;100.00;100397.48;1666392;85;21057;-74
2021/12/16 10:22:23;;;;;;;55.33;37.30;;;;;;;-0.16;100.00;100395.31;1674109;84;21025;-71
2021/12/16 10:24:52;;;;;;;46.93;31.27;;;;;;;-0.16;100.00;100402.41;1582539;90;21058;-72
2021/12/16 10:27:26;;;;;;;48.60;31.67;;;;;;;-0.14;100.00;100394.73;1580793;90;21519;-69
2021/12/16 10:30:05;;;;;;;103.33;57.03;;;;;;;-0.14;100.00;100388.09;1515509;95;21710;-71
2021/12/16 10:32:43;;;;;;;76.80;45.47;;;;;;;-0.12;100.00;100390.17;1513058;95;21568;-70
2021/12/16 10:35:14;;;;;;;61.13;35.87;;;;;;;-0.11;100.00;100389.69;1513451;94;21136;-74
2021/12/16 10:37:47;;;;;;;60.20;35.90;;;;;;;-0.09;100.00;100386.01;1516172;95;21122;-73
2021/12/16 10:40:43;;;;;;;74.50;42.60;;;;;;;-0.06;100.00;100383.63;1466499;96;21251;-74
2021/12/16 10:43:18;;;;;;;125.47;69.53;;;;;;;-0.02;100.00;100375.83;1458018;96;21620;-75
2021/12/16 10:45:56;;;;;;;154.37;78.00;;;;;;;0.00;100.00;100379.27;1476483;96;21130;-74
2021/12/16 10:48:30;;;;;;;135.27;72.83;;;;;;;0.04;100.00;100375.95;1439253;99;21262;-74
2021/12/16 10:51:22;;;;;;;106.97;61.37;;;;;;;0.01;100.00;100366.34;1439390;98;21169;-75
2021/12/16 10:54:12;;;;;;;98.47;59.30;;;;;;;-0.04;100.00;100369.27;1441188;98;21121;-73
2021/12/16 10:56:44;;;;;;;107.53;64.40;;;;;;;-0.05;100.00;100368.06;1445297;98;21125;-75
2021/12/16 10:59:25;;;;;;;64.70;39.23;;;;;;;-0.06;100.00;100367.19;1410555;101;21091;-74
2021/12/16 11:02:06;;;;;;;82.53;49.93;;;;;;;-0.07;100.00;100365.95;1417571;101;21642;-72
2021/12/16 11:04:52;;;;;;;73.63;43.93;;;;;;;-0.11;100.00;100359.13;1406617;101;21144;-75
2021/12/16 11:07:35;;;;;;;106.20;58.50;;;;;;;-0.15;100.00;100358.45;1406045;101;21150;-74
2021/12/16 11:10:27;;;;;;;130.97;69.63;;;;;;;-0.23;100.00;100358.94;1399256;101;21183;-74
2021/12/16 11:13:02;;;;;;;111.00;67.97;;;;;;;-0.27;100.00;100360.54;1371671;104;21160;-74
2021/12/16 11:15:32;;;;;;;91.10;47.90;;;;;;;-0.29;100.00;100357.12;1395945;102;21178;-73
2021/12/16 11:18:20;;;;;;;65.77;35.17;;;;;;;-0.31;100.00;100355.89;1400545;102;21159;-73
2021/12/16 11:20:56;;;;;;;36.13;21.37;;;;;;;-0.29;100.00;100355.80;1376824;102;21509;-74
2021/12/16 11:23:40;;;;;;;35.37;20.67;;;;;;;-0.27;100.00;100351.23;1389961;101;21149;-71
2021/12/16 11:26:16;;;;;;;28.10;16.95;;;;;;;-0.30;100.00;100347.43;1407410;98;21167;-71
2021/12/16 11:28:46;;;;;;;36.57;20.83;;;;;;;-0.31;100.00;100346.59;1456708;98;21192;-71
2021/12/16 11:31:17;;;;;;;40.07;26.33;;;;;;;-0.34;100.00;100342.78;1457137;98;21593;-73
2021/12/16 11:33:50;;;;;;;75.47;49.40;;;;;;;-0.34;100.00;100344.59;1456597;98;21165;-73
2021/12/16 11:36:27;;;;;;;72.67;52.90;;;;;;;-0.33;100.00;100346.31;1423389;97;21753;-74
2021/12/16 11:39:01;;;;;;;30.83;18.30;;;;;;;-0.33;100.00;100352.47;1471689;97;21112;-73
2021/12/16 11:41:50;;;;;;;30.23;19.20;;;;;;;-0.35;100.00;100346.85;1455640;97;21098;-73
2021/12/16 11:44:23;;;;;;;34.73;19.40;;;;;;;-0.42;100.00;100351.71;1445756;96;21127;-74
2021/12/16 11:47:02;;;;;;;33.25;19.52;;;;;;;-0.48;100.00;100354.72;1498487;96;21047;-76
2021/12/16 11:49:40;;;;;;;30.73;17.43;;;;;;;-0.50;100.00;100349.98;1506094;94;21130;-74
2021/12/16 11:52:11;;;;;;;30.23;18.83;;;;;;;-0.53;100.00;100347.50;1517503;94;21179;-75
2021/12/16 11:54:48;;;;;;;29.63;17.77;;;;;;;-0.55;100.00;100337.45;1518229;94;21099;-74
2021/12/16 11:57:30;;;;;;;32.50;18.77;;;;;;;-0.58;100.00;100323.89;1589825;89;21094;-73
2021/12/16 12:00:04;;;;;;;46.70;32.23;;;;;;;-0.62;100.00;100321.90;1588520;90;21538;-74
2021/12/16 12:02:39;;;;;;;57.37;35.37;;;;;;;-0.62;100.00;100328.98;1560156;90;21116;-74
2021/12/16 12:05:29;;;;;;;66.53;44.25;;;;;;;-0.62;100.00;100325.00;1559842;91;21607;-74
2021/12/16 12:08:13;;;;;;;86.00;54.07;;;;;;;-0.62;100.00;100325.00;1559948;92;21034;-73
2021/12/16 12:11:02;;;;;;;60.13;33.40;;;;;;;-0.64;100.00;100315.83;1551867;91;21062;-75
2021/12/16 12:13:41;;;;;;;54.33;28.07;;;;;;;-0.69;100.00;100309.94;1551468;92;21113;-73
2021/12/16 12:16:17;;;;;;;56.07;29.33;;;;;;;-0.71;100.00;100309.62;1550991;91;21077;-75
2021/12/16 12:18:57;;;;;;;49.23;26.43;;;;;;;-0.72;100.00;100306.61;1550905;92;21072;-72
2021/12/16 12:21:38;;;;;;;46.93;25.47;;;;;;;-0.73;100.00;100300.42;1543774;92;21042;-72
2021/12/16 12:26:59;;;;;;;70.43;43.27;;;;;;;-0.74;100.00;100296.53;1480404;97;21157;-72
2021/12/16 12:29:37;;;;;;;73.40;44.43;;;;;;;-0.78;100.00;100290.55;1442947;99;21086;-71
2021/12/16 12:32:11;;;;;;;77.60;46.57;;;;;;;-0.81;100.00;100288.95;1422811;99;21162;-72
2021/12/16 12:34:41;;;;;;;84.33;56.47;;;;;;;-0.83;100.00;100284.69;1458211;98;21633;-71
2021/12/16 12:37:11;;;;;;;89.33;56.57;;;;;;;-0.89;100.00;100279.25;1436310;100;21137;-71
2021/12/16 12:39:42;;;;;;;72.70;42.20;;;;;;;-0.92;100.00;100283.44;1457966;98;21154;-71
2021/12/16 12:42:11;;;;;;;74.70;46.87;;;;;;;-0.92;100.00;100284.77;1449814;99;21185;-71
2021/12/16 12:44:39;;;;;;;66.80;39.30;;;;;;;-0.95;100.00;100288.92;1452992;96;21105;-70
2021/12/16 12:47:09;;;;;;;61.20;35.37;;;;;;;-0.97;100.00;100289.01;1481686;96;21121;-70
2021/12/16 12:49:36;;;;;;;57.77;34.47;;;;;;;-0.95;100.00;100290.25;1482232;97;21587;-70
2021/12/16 12:52:11;;;;;;;48.73;27.57;;;;;;;-0.94;100.00;100294.59;1483079;97;21128;-69
2021/12/16 12:54:42;;;;;;;49.60;27.77;;;;;;;-0.91;100.00;100292.25;1461152;98;21270;-67
2021/12/16 12:57:23;;;;;;;48.57;28.73;;;;;;;-0.90;100.00;100285.52;1483013;97;21168;-69
2021/12/16 12:59:52;;;;;;;45.07;25.63;;;;;;;-0.88;100.00;100292.92;1510542;94;21655;-67
2021/12/16 13:02:24;;;;;;;55.00;33.20;;;;;;;-0.88;100.00;100286.28;1447222;97;21166;-68
2021/12/16 13:04:59;;;;;;;51.17;28.80;;;;;;;-0.88;100.00;100282.30;1484658;96;21141;-69
2021/12/16 13:07:43;;;;;;;66.90;36.60;;;;;;;-0.86;100.00;100285.71;1501455;95;21158;-68
2021/12/16 13:10:17;;;;;;;76.30;40.00;;;;;;;-0.85;100.00;100291.41;1470329;96;21208;-69
2021/12/16 13:12:55;;;;;;;72.00;35.53;;;;;;;-0.90;100.00;100292.16;1466726;98;21084;-68
2021/12/16 13:15:39;;;;;;;64.70;30.77;;;;;;;-0.96;100.00;100292.06;1405024;102;21702;-71
2021/12/16 13:26:37;;;;;;;66.17;32.65;;;;;;;-1.02;100.00;100283.11;1402433;102;21154;-69
2021/12/16 13:29:20;;;;;;;72.20;35.50;;;;;;;-1.02;100.00;100283.59;1401196;102;21566;-71
2021/12/16 13:32:06;;;;;;;63.97;32.87;;;;;;;-1.00;100.00;100283.03;1402057;98;21141;-69
2021/12/16 13:34:30;;;;;;;34.90;16.47;;;;;;;-1.00;100.00;100290.99;1449819;98;21100;-70
2021/12/16 13:37:02;;;;;;;32.57;15.83;;;;;;;-1.01;100.00;100290.59;1415295;100;21152;-69
2021/12/16 13:39:27;;;;;;;31.00;16.47;;;;;;;-1.02;100.00;100295.55;1450788;98;21184;-67
2021/12/16 13:41:59;;;;;;;32.47;16.53;;;;;;;-1.03;100.00;100285.86;1450387;98;21615;-68
2021/12/16 13:44:45;;;;;;;34.38;16.40;;;;;;;-1.03;100.00;100284.53;1431749;99;21106;-69
2021/12/16 14:00:18;;;;;;;28.83;14.10;;;;;;;-1.04;100.00;100275.72;1409954;101;21164;-65
2021/12/16 14:07:58;;;;;;;26.33;12.77;;;;;;;-1.06;100.00;100279.39;1419298;101;21599;-70
2021/12/16 14:10:45;;;;;;;30.27;14.83;;;;;;;-1.08;100.00;100274.66;1418160;98;21147;-70
2021/12/16 14:45:35;;;;;;;26.43;13.30;;;;;;;-1.20;100.00;100279.75;1485385;96;21154;-72
2021/12/16 14:48:09;;;;;;;25.63;13.07;;;;;;;-1.24;100.00;100283.55;1476802;96;21141;-72
2021/12/16 14:50:49;;;;;;;34.47;18.73;;;;;;;-1.25;100.00;100281.82;1531469;93;21122;-75
2021/12/16 14:53:25;;;;;;;37.00;18.70;;;;;;;-1.28;100.00;100267.39;1530920;93;21038;-76
2021/12/16 14:56:01;;;;;;;30.77;15.33;;;;;;;-1.28;100.00;100263.90;1488328;94;21128;-75
2021/12/16 14:58:27;;;;;;;40.27;22.90;;;;;;;-1.33;100.00;100265.48;1465838;98;21068;-76
2021/12/16 15:01:02;;;;;;;36.17;21.07;;;;;;;-1.34;100.00;100263.80;1467550;98;21060;-75
2021/12/16 15:03:35;;;;;;;31.43;17.40;;;;;;;-1.33;100.00;100264.16;1427482;99;21746;-75
2021/12/16 15:06:05;;;;;;;33.43;20.00;;;;;;;-1.35;100.00;100259.42;1408205;100;21682;-69
2021/12/16 15:08:46;;;;;;;39.47;24.60;;;;;;;-1.37;100.00;100254.67;1425901;101;21718;-69
2021/12/16 15:11:12;;;;;;;37.10;22.37;;;;;;;-1.37;100.00;100254.67;1417953;98;21176;-67
2021/12/16 15:13:46;;;;;;;29.57;16.67;;;;;;;-1.39;100.00;100250.78;1411430;101;21188;-69
2021/12/16 15:36:43;;;;;;;40.07;24.47;;;;;;;-1.50;100.00;100245.74;1408679;101;21188;-71
2021/12/16 15:44:15;;;;;;;35.53;20.20;;;;;;;-1.45;100.00;100237.02;1409241;101;21083;-69